createdAt,value
2018-09-03T00:02:05.763Z,95299.63
2018-09-03T00:04:31.746Z,95300.22
2018-09-03T00:06:57.729Z,95294.67
2018-09-03T00:09:23.722Z,95302.98
2018-09-03T00:11:49.740Z,95309.52
2018-09-03T00:14:15.719Z,95305.77
2018-09-03T00:16:41.692Z,95304.55
2018-09-03T00:19:07.716Z,95301.38
2018-09-03T00:21:33.701Z,95304.55
2018-09-03T00:23:59.686Z,95291.27
2018-09-03T00:26:25.672Z,95294.04
2018-09-03T00:28:51.653Z,95296.03
2018-09-03T00:31:17.637Z,95296.44
2018-09-03T00:33:43.620Z,95295.05
2018-09-03T00:36:09.647Z,95294.65
2018-09-03T00:38:35.626Z,95297.83
2018-09-03T00:41:01.605Z,95298.98
2018-09-03T00:43:27.590Z,95285.52
2018-09-03T00:45:53.571Z,95282.34
2018-09-03T00:48:19.550Z,95283.33
2018-09-03T00:50:45.535Z,95275.82
2018-09-03T00:53:11.518Z,95276.40
2018-09-03T00:55:37.500Z,95273.63
2018-09-03T00:58:03.481Z,95276.61
2018-09-03T01:00:29.467Z,95278.39
2018-09-03T01:02:55.453Z,95285.33
2018-09-03T01:05:21.439Z,95282.16
2018-09-03T01:07:47.468Z,95289.86
2018-09-03T01:10:13.461Z,95284.92
2018-09-03T01:12:39.442Z,95285.50
2018-09-03T01:15:05.430Z,95287.70
2018-09-03T01:17:31.412Z,95291.86
2018-09-03T01:19:57.427Z,95296.02
2018-09-03T01:22:23.411Z,95294.62
2018-09-03T01:24:49.386Z,95292.03
2018-09-03T01:27:15.369Z,95293.24
2018-09-03T01:29:41.402Z,95295.21
2018-09-03T01:32:07.339Z,95291.63
2018-09-03T01:34:33.317Z,95296.59
2018-09-03T01:36:59.302Z,95290.24
2018-09-03T01:39:25.278Z,95288.45
2018-09-03T01:41:51.257Z,95284.70
2018-09-03T01:44:17.242Z,95282.33
2018-09-03T01:46:43.232Z,95288.45
2018-09-03T01:49:09.209Z,95276.99
2018-09-03T01:51:35.192Z,95280.75
2018-09-03T01:54:01.178Z,95278.38
2018-09-03T01:56:27.155Z,95269.05
2018-09-03T01:58:53.139Z,95275.20
2018-09-03T02:01:19.120Z,95275.78
2018-09-03T02:03:45.089Z,95272.02
2018-09-03T02:06:11.079Z,95268.67
2018-09-03T02:08:37.063Z,95262.09
2018-09-03T02:11:03.040Z,95265.67
2018-09-03T02:13:29.028Z,95265.09
2018-09-03T02:15:55.005Z,95261.52
2018-09-03T02:18:20.980Z,95265.67
2018-09-03T02:20:46.963Z,95260.13
2018-09-03T02:23:12.933Z,95256.95
2018-09-03T02:25:38.918Z,95252.39
2018-09-03T02:28:04.899Z,95247.25
2018-09-03T02:30:30.879Z,95246.07
2018-09-03T02:32:56.867Z,95251.81
2018-09-03T02:35:22.841Z,95244.28
2018-09-03T02:37:48.833Z,95244.86
2018-09-03T02:40:14.822Z,95245.66
2018-09-03T02:42:40.798Z,95241.50
2018-09-03T02:45:06.772Z,95239.13
2018-09-03T02:47:32.759Z,95239.72
2018-09-03T02:49:58.738Z,95237.52
2018-09-03T02:52:24.724Z,95236.55
2018-09-03T02:54:50.706Z,95243.07
2018-09-03T02:57:16.681Z,95238.33
2018-09-03T02:59:42.659Z,95231.00
2018-09-03T03:02:08.648Z,95233.77
2018-09-03T03:04:34.636Z,95234.17
2018-09-03T03:07:00.649Z,95236.55
2018-09-03T03:09:26.629Z,95237.52
2018-09-03T03:11:52.615Z,95233.57
2018-09-03T03:14:18.587Z,95234.75
2018-09-03T03:16:44.562Z,95228.22
2018-09-03T03:19:10.550Z,95218.52
2018-09-03T03:21:36.529Z,95224.06
2018-09-03T03:24:02.506Z,95218.11
2018-09-03T03:26:28.520Z,95218.33
2018-09-03T03:28:54.497Z,95222.27
2018-09-03T03:31:20.572Z,95222.89
2018-09-03T03:33:46.463Z,95220.48
2018-09-03T03:36:12.455Z,95217.71
2018-09-03T03:38:38.431Z,95221.87
2018-09-03T03:41:04.419Z,95213.19
2018-09-03T03:43:30.440Z,95212.38
2018-09-03T03:45:56.414Z,95212.78
2018-09-03T03:48:22.407Z,95207.23
2018-09-03T03:50:48.395Z,95211.39
2018-09-03T03:53:14.382Z,95211.80
2018-09-03T03:55:40.364Z,95214.34
2018-09-03T03:58:06.345Z,95213.77
2018-09-03T04:00:32.327Z,95223.47
2018-09-03T04:02:58.305Z,95218.91
2018-09-03T04:05:24.314Z,95222.48
2018-09-03T04:07:50.297Z,95220.29
2018-09-03T04:10:16.274Z,95216.13
2018-09-03T04:12:42.301Z,95212.78
2018-09-03T04:15:08.291Z,95211.19
2018-09-03T04:17:34.270Z,95208.41
2018-09-03T04:20:00.257Z,95205.06
2018-09-03T04:22:26.235Z,95203.09
2018-09-03T04:24:52.212Z,95198.53
2018-09-03T04:27:18.195Z,95193.18
2018-09-03T04:29:44.179Z,95200.52
2018-09-03T04:32:10.165Z,95203.11
2018-09-03T04:34:36.154Z,95197.36
2018-09-03T04:37:02.134Z,95198.74
2018-09-03T04:39:28.109Z,95187.67
2018-09-03T04:41:54.086Z,95185.70
2018-09-03T04:44:20.101Z,95192.05
2018-09-03T04:46:46.089Z,95198.00
2018-09-03T04:49:12.106Z,95196.61
2018-09-03T04:51:38.079Z,95192.63
2018-09-03T04:54:04.152Z,95189.05
2018-09-03T04:56:30.141Z,95186.30
2018-09-03T04:58:56.120Z,95184.14
2018-09-03T05:01:22.124Z,95180.97
2018-09-03T05:03:48.104Z,95178.20
2018-09-03T05:06:14.091Z,95181.17
2018-09-03T05:08:40.125Z,95186.72
2018-09-03T05:11:06.226Z,95180.78
2018-09-03T05:13:32.221Z,95175.04
2018-09-03T05:15:58.228Z,95173.08
2018-09-03T05:18:24.212Z,95183.19
2018-09-03T05:20:50.226Z,95183.95
2018-09-03T05:23:16.218Z,95180.02
2018-09-03T05:25:42.194Z,95188.52
2018-09-03T05:28:08.183Z,95189.10
2018-09-03T05:30:34.184Z,95191.50
2018-09-03T05:33:00.217Z,95196.64
2018-09-03T05:35:26.209Z,95202.19
2018-09-03T05:37:52.242Z,95200.98
2018-09-03T05:40:18.189Z,95200.80
2018-09-03T05:42:44.196Z,95199.02
2018-09-03T05:45:10.182Z,95203.76
2018-09-03T05:47:36.160Z,95200.98
2018-09-03T05:50:02.152Z,95193.64
2018-09-03T05:52:28.130Z,95196.24
2018-09-03T05:54:54.132Z,95193.88
2018-09-03T05:57:20.125Z,95196.64
2018-09-03T05:59:46.143Z,95199.42
2018-09-03T06:02:12.124Z,95199.42
2018-09-03T06:04:38.118Z,95199.42
2018-09-03T06:07:04.130Z,95195.05
2018-09-03T06:09:30.079Z,95198.80
2018-09-03T06:11:56.063Z,95195.26
2018-09-03T06:14:22.060Z,95202.97
2018-09-03T06:16:48.035Z,95203.58
2018-09-03T06:19:14.046Z,95209.90
2018-09-03T06:21:40.028Z,95209.90
2018-09-03T06:24:05.996Z,95208.91
2018-09-03T06:26:32.026Z,95207.13
2018-09-03T06:28:58.711Z,95205.74
2018-09-03T06:31:24.664Z,95200.80
2018-09-03T06:33:50.673Z,95204.56
2018-09-03T06:36:16.635Z,95198.03
2018-09-03T06:38:42.621Z,95196.64
2018-09-03T06:41:08.605Z,95185.73
2018-09-03T06:43:34.593Z,95189.71
2018-09-03T06:46:00.643Z,95189.31
2018-09-03T06:48:26.598Z,95187.12
2018-09-03T06:50:52.587Z,95183.77
2018-09-03T06:53:18.604Z,95185.73
2018-09-03T06:55:44.596Z,95184.57
2018-09-03T06:58:10.586Z,95181.39
2018-09-03T07:00:36.560Z,95179.39
2018-09-03T07:03:02.645Z,95185.95
2018-09-03T07:05:28.666Z,95184.36
2018-09-03T07:07:54.644Z,95188.12
2018-09-03T07:10:20.630Z,95189.73
2018-09-03T07:12:46.654Z,95194.88
2018-09-03T07:15:12.654Z,95186.95
2018-09-03T07:17:38.646Z,95181.99
2018-09-03T07:20:04.623Z,95172.09
2018-09-03T07:22:30.606Z,95171.87
2018-09-03T07:24:56.620Z,95180.39
2018-09-03T07:27:22.601Z,95178.20
2018-09-03T07:29:48.592Z,95184.91
2018-09-03T07:32:14.583Z,95185.94
2018-09-03T07:34:40.574Z,95183.17
2018-09-03T07:37:06.553Z,95180.19
2018-09-03T07:39:32.546Z,95182.78
2018-09-03T07:41:58.582Z,95172.28
2018-09-03T07:44:24.565Z,95176.45
2018-09-03T07:46:50.557Z,95182.20
2018-09-03T07:49:16.584Z,95169.34
2018-09-03T07:51:42.569Z,95173.52
2018-09-03T07:54:08.602Z,95171.75
2018-09-03T07:56:34.643Z,95167.38
2018-09-03T07:59:00.628Z,95170.38
2018-09-03T08:01:26.652Z,95168.78
2018-09-03T08:03:52.682Z,95164.44
2018-09-03T08:06:18.721Z,95161.67
2018-09-03T08:08:44.701Z,95159.70
2018-09-03T08:11:10.720Z,95157.12
2018-09-03T08:13:36.698Z,95156.73
2018-09-03T08:16:02.678Z,95143.09
2018-09-03T08:18:28.705Z,95155.36
2018-09-03T08:20:54.691Z,95150.03
2018-09-03T08:23:20.675Z,95137.55
2018-09-03T08:25:46.668Z,95144.28
2018-09-03T08:28:12.663Z,95148.44
2018-09-03T08:30:38.736Z,95146.65
2018-09-03T08:33:04.724Z,95133.97
2018-09-03T08:35:30.743Z,95137.73
2018-09-03T08:37:56.938Z,95124.27
2018-09-03T08:40:22.925Z,95122.70
2018-09-03T08:42:48.916Z,95114.16
2018-09-03T08:45:14.894Z,95107.44
2018-09-03T08:47:40.877Z,95096.12
2018-09-03T08:50:06.859Z,95098.91
2018-09-03T08:52:33.017Z,95092.37
2018-09-03T08:54:59.011Z,95094.16
2018-09-03T08:57:25.002Z,95099.13
2018-09-03T08:59:50.977Z,95092.97
2018-09-03T09:02:16.952Z,95085.27
2018-09-03T09:04:42.936Z,95079.52
2018-09-03T09:07:08.945Z,95083.67
2018-09-03T09:09:34.924Z,95079.11
2018-09-03T09:12:00.915Z,95077.54
2018-09-03T09:14:26.929Z,95076.16
2018-09-03T09:16:52.932Z,95070.20
2018-09-03T09:19:18.913Z,95073.56
2018-09-03T09:21:44.898Z,95065.85
2018-09-03T09:24:10.893Z,95058.30
2018-09-03T09:26:37.158Z,95049.98
2018-09-03T09:29:03.154Z,95047.83
2018-09-03T09:31:29.185Z,95044.66
2018-09-03T09:33:55.185Z,95038.30
2018-09-03T09:36:21.293Z,95045.23
2018-09-03T09:38:47.238Z,95041.66
2018-09-03T09:41:13.209Z,95038.48
2018-09-03T09:43:39.203Z,95040.27
2018-09-03T09:46:05.179Z,95035.53
2018-09-03T09:48:31.175Z,95027.61
2018-09-03T09:50:57.152Z,95024.63
2018-09-03T09:53:23.156Z,95020.27
2018-09-03T09:55:49.175Z,95022.06
2018-09-03T09:58:15.170Z,95021.08
2018-09-03T10:00:41.140Z,95013.93
2018-09-03T10:03:07.125Z,95011.77
2018-09-03T10:05:33.110Z,95004.03
2018-09-03T10:07:59.109Z,94997.29
2018-09-03T10:10:25.109Z,94994.92
2018-09-03T10:12:51.150Z,94995.72
2018-09-03T10:15:17.125Z,94991.97
2018-09-03T10:17:43.115Z,94996.31
2018-09-03T10:20:09.161Z,94992.95
2018-09-03T10:22:35.141Z,94989.79
2018-09-03T10:25:01.154Z,94991.17
2018-09-03T10:27:27.147Z,94983.45
2018-09-03T10:29:53.155Z,94978.88
2018-09-03T10:32:19.141Z,94974.36
2018-09-03T10:34:45.121Z,94969.18
2018-09-03T10:37:11.148Z,94969.18
2018-09-03T10:39:37.191Z,94969.18
2018-09-03T10:42:03.153Z,94967.43
2018-09-03T10:44:29.139Z,94964.45
2018-09-03T10:46:55.156Z,94959.29
2018-09-03T10:49:21.170Z,94958.31
2018-09-03T10:51:47.162Z,94952.36
2018-09-03T10:54:13.165Z,94946.98
2018-09-03T10:56:39.154Z,94944.03
2018-09-03T10:59:05.149Z,94943.03
2018-09-03T11:01:31.187Z,94944.82
2018-09-03T11:03:57.141Z,94945.02
2018-09-03T11:06:23.149Z,94944.42
2018-09-03T11:08:49.123Z,94938.47
2018-09-03T11:11:15.126Z,94943.62
2018-09-03T11:13:41.259Z,94940.05
2018-09-03T11:16:07.260Z,94944.82
2018-09-03T11:18:33.261Z,94944.20
2018-09-03T11:20:59.332Z,94944.42
2018-09-03T11:23:25.319Z,94941.25
2018-09-03T11:25:51.302Z,94930.34
2018-09-03T11:28:17.284Z,94929.16
2018-09-03T11:30:43.295Z,94914.49
2018-09-03T11:33:09.269Z,94917.08
2018-09-03T11:35:35.248Z,94920.84
2018-09-03T11:38:01.228Z,94921.82
2018-09-03T11:40:27.215Z,94916.67
2018-09-03T11:42:53.218Z,94922.22
2018-09-03T11:45:19.197Z,94911.92
2018-09-03T11:47:45.200Z,94913.68
2018-09-03T11:50:11.176Z,94917.84
2018-09-03T11:52:37.168Z,94921.63
2018-09-03T11:55:03.157Z,94922.41
2018-09-03T11:57:29.197Z,94937.08
2018-09-03T11:59:55.182Z,94948.37
2018-09-03T12:02:21.211Z,94945.22
2018-09-03T12:04:47.214Z,94947.37
2018-09-03T12:07:13.220Z,94953.73
2018-09-03T12:09:39.203Z,94953.73
2018-09-03T12:12:05.199Z,94945.41
2018-09-03T12:14:31.192Z,94954.94
2018-09-03T12:16:57.232Z,94953.91
2018-09-03T12:19:23.236Z,94954.31
2018-09-03T12:21:49.223Z,94953.91
2018-09-03T12:24:15.217Z,94945.22
2018-09-03T12:26:41.226Z,94951.54
2018-09-03T12:29:07.233Z,94948.58
2018-09-03T12:31:33.209Z,94944.81
2018-09-03T12:33:59.208Z,94944.02
2018-09-03T12:36:25.209Z,94939.05
2018-09-03T12:38:51.206Z,94937.26
2018-09-03T12:41:17.201Z,94936.27
2018-09-03T12:43:43.226Z,94933.71
2018-09-03T12:46:09.187Z,94935.50
2018-09-03T12:48:35.166Z,94941.05
2018-09-03T12:51:01.143Z,94942.44
2018-09-03T12:53:27.126Z,94944.00
2018-09-03T12:55:53.157Z,94932.33
2018-09-03T12:58:19.215Z,94924.77
2018-09-03T13:00:45.251Z,94921.80
2018-09-03T13:03:11.212Z,94922.80
2018-09-03T13:05:37.200Z,94914.06
2018-09-03T13:08:03.288Z,94908.92
2018-09-03T13:10:29.293Z,94901.40
2018-09-03T13:12:55.339Z,94895.27
2018-09-03T13:15:21.265Z,94895.05
2018-09-03T13:17:47.261Z,94897.82
2018-09-03T13:20:13.241Z,94893.27
2018-09-03T13:22:39.278Z,94888.33
2018-09-03T13:25:05.249Z,94874.47
2018-09-03T13:27:31.234Z,94868.92
2018-09-03T13:29:57.215Z,94860.20
2018-09-03T13:32:23.199Z,94854.25
2018-09-03T13:34:49.199Z,94850.27
2018-09-03T13:37:15.199Z,94838.77
2018-09-03T13:39:41.185Z,94840.78
2018-09-03T13:42:07.251Z,94822.53
2018-09-03T13:44:33.209Z,94830.45
2018-09-03T13:46:59.163Z,94827.30
2018-09-03T13:49:25.170Z,94830.08
2018-09-03T13:51:51.219Z,94825.92
2018-09-03T13:54:17.221Z,94838.00
2018-09-03T13:56:43.206Z,94834.02
2018-09-03T13:59:09.188Z,94842.34
2018-09-03T14:01:35.183Z,94835.81
2018-09-03T14:04:01.163Z,94834.61
2018-09-03T14:06:27.200Z,94835.59
2018-09-03T14:08:53.192Z,94836.39
2018-09-03T14:11:19.198Z,94830.45
2018-09-03T14:13:45.157Z,94839.16
2018-09-03T14:16:11.161Z,94836.61
2018-09-03T14:18:37.154Z,94841.95
2018-09-03T14:21:03.189Z,94845.12
2018-09-03T14:23:29.191Z,94842.34
2018-09-03T14:25:55.219Z,94838.77
2018-09-03T14:28:21.237Z,94838.19
2018-09-03T14:30:47.206Z,94842.75
2018-09-03T14:33:13.245Z,94842.34
2018-09-03T14:35:39.228Z,94853.26
2018-09-03T14:38:05.229Z,94853.84
2018-09-03T14:40:31.225Z,94849.86
2018-09-03T14:42:57.263Z,94855.81
2018-09-03T14:45:23.230Z,94840.37
2018-09-03T14:47:49.195Z,94838.58
2018-09-03T14:50:15.205Z,94838.40
2018-09-03T14:52:41.210Z,94832.85
2018-09-03T14:55:07.202Z,94839.57
2018-09-03T14:57:33.211Z,94835.02
2018-09-03T14:59:59.214Z,94834.83
2018-09-03T15:02:25.361Z,94826.91
2018-09-03T15:04:51.366Z,94823.92
2018-09-03T15:07:17.352Z,94820.55
2018-09-03T15:09:43.343Z,94822.92
2018-09-03T15:12:09.329Z,94827.48
2018-09-03T15:14:35.324Z,94829.27
2018-09-03T15:17:01.334Z,94827.48
2018-09-03T15:19:27.333Z,94827.66
2018-09-03T15:21:53.350Z,94832.04
2018-09-03T15:24:19.354Z,94825.28
2018-09-03T15:26:45.413Z,94813.02
2018-09-03T15:29:11.360Z,94815.39
2018-09-03T15:31:37.434Z,94820.14
2018-09-03T15:34:03.395Z,94818.75
2018-09-03T15:36:29.447Z,94825.69
2018-09-03T15:38:55.362Z,94827.66
2018-09-03T15:41:21.378Z,94831.41
2018-09-03T15:43:47.380Z,94822.51
2018-09-03T15:46:13.360Z,94826.48
2018-09-03T15:48:39.465Z,94820.53
2018-09-03T15:51:05.371Z,94821.12
2018-09-03T15:53:31.383Z,94827.87
2018-09-03T15:55:57.372Z,94830.83
2018-09-03T15:58:23.396Z,94826.66
2018-09-03T16:00:49.398Z,94836.95
2018-09-03T16:03:15.385Z,94842.91
2018-09-03T16:05:41.476Z,94848.45
2018-09-03T16:08:07.515Z,94857.75
2018-09-03T16:10:33.501Z,94853.41
2018-09-03T16:13:07.006Z,94859.14
2018-09-03T16:15:30.573Z,94862.13
2018-09-03T16:17:56.620Z,94868.07
2018-09-03T16:20:22.620Z,94874.60
2018-09-03T16:22:48.598Z,94877.38
2018-09-03T16:25:14.588Z,94878.36
2018-09-03T16:27:40.610Z,94880.95
2018-09-03T16:30:06.599Z,94888.65
2018-09-03T16:32:32.664Z,94892.63
2018-09-03T16:34:58.655Z,94901.74
2018-09-03T16:37:24.663Z,94914.59
2018-09-03T16:39:50.698Z,94915.61
2018-09-03T16:42:16.654Z,94909.26
2018-09-03T16:44:42.660Z,94901.52
2018-09-03T16:47:08.663Z,94890.43
2018-09-03T16:49:34.665Z,94887.26
2018-09-03T16:52:00.681Z,94898.96
2018-09-03T16:54:26.686Z,94906.66
2018-09-03T16:56:52.689Z,94901.73
2018-09-03T16:59:18.672Z,94897.36
2018-09-03T17:01:44.687Z,94891.42
2018-09-03T17:04:10.670Z,94882.13
2018-09-03T17:06:36.663Z,94885.48
2018-09-03T17:09:02.670Z,94889.07
2018-09-03T17:11:28.669Z,94887.50
2018-09-03T17:13:54.653Z,94886.30
2018-09-03T17:16:20.666Z,94879.59
2018-09-03T17:18:46.678Z,94875.02
2018-09-03T17:21:12.664Z,94875.20
2018-09-03T17:23:38.654Z,94872.44
2018-09-03T17:26:04.734Z,94877.39
2018-09-03T17:28:30.729Z,94872.83
2018-09-03T17:30:56.822Z,94870.05
2018-09-03T17:33:22.818Z,94857.39
2018-09-03T17:35:48.793Z,94856.59
2018-09-03T17:38:14.812Z,94862.95
2018-09-03T17:40:40.801Z,94860.77
2018-09-03T17:43:06.801Z,94865.11
2018-09-03T17:45:32.893Z,94868.28
2018-09-03T17:47:58.883Z,94865.12
2018-09-03T17:50:24.879Z,94866.50
2018-09-03T17:52:50.900Z,94864.94
2018-09-03T17:55:16.956Z,94873.25
2018-09-03T17:57:42.907Z,94869.90
2018-09-03T18:00:08.952Z,94874.23
2018-09-03T18:02:34.948Z,94879.61
2018-09-03T18:05:00.943Z,94883.36
2018-09-03T18:07:26.962Z,94878.63
2018-09-03T18:09:52.941Z,94869.28
2018-09-03T18:12:18.923Z,94872.06
2018-09-03T18:14:44.961Z,94876.03
2018-09-03T18:17:10.945Z,94880.78
2018-09-03T18:19:36.943Z,94887.53
2018-09-03T18:22:02.928Z,94886.33
2018-09-03T18:24:28.931Z,94898.23
2018-09-03T18:26:54.918Z,94888.52
2018-09-03T18:29:20.948Z,94896.84
2018-09-03T18:31:46.931Z,94894.47
2018-09-03T18:34:12.948Z,94894.87
2018-09-03T18:36:38.942Z,94893.49
2018-09-03T18:39:04.931Z,94883.57
2018-09-03T18:41:30.951Z,94880.22
2018-09-03T18:43:58.053Z,94881.02
2018-09-03T18:46:24.068Z,94874.27
2018-09-03T18:48:50.055Z,94876.23
2018-09-03T18:51:16.227Z,94877.25
2018-09-03T18:53:42.219Z,94883.80
2018-09-03T18:56:08.399Z,94876.46
2018-09-03T18:58:34.432Z,94879.41
2018-09-03T19:01:00.428Z,94878.83
2018-09-03T19:03:26.659Z,94875.25
2018-09-03T19:05:52.645Z,94883.17
2018-09-03T19:08:18.640Z,94894.09
2018-09-03T19:10:44.652Z,94902.59
2018-09-03T19:13:10.762Z,94924.80
2018-09-03T19:15:36.963Z,94931.73
2018-09-03T19:18:02.935Z,94932.74
2018-09-03T19:20:28.912Z,94937.89
2018-09-03T19:22:54.932Z,94932.92
2018-09-03T19:25:20.943Z,94925.81
2018-09-03T19:27:46.920Z,94925.59
2018-09-03T19:30:12.925Z,94917.86
2018-09-03T19:32:38.904Z,94925.19
2018-09-03T19:35:04.893Z,94927.97
2018-09-03T19:37:30.870Z,94927.38
2018-09-03T19:39:56.854Z,94929.97
2018-09-03T19:42:22.851Z,94927.38
2018-09-03T19:44:48.828Z,94929.75
2018-09-03T19:47:14.813Z,94926.98
2018-09-03T19:49:40.790Z,94930.16
2018-09-03T19:52:06.819Z,94939.87
2018-09-03T19:54:32.764Z,94938.88
2018-09-03T19:56:58.765Z,94948.37
2018-09-03T19:59:24.762Z,94962.65
2018-09-03T20:01:50.754Z,94965.42
2018-09-03T20:04:16.751Z,94963.05
2018-09-03T20:06:42.751Z,94959.28
2018-09-03T20:09:08.727Z,94948.01
2018-09-03T20:11:34.716Z,94951.16
2018-09-03T20:14:00.693Z,94946.98
2018-09-03T20:16:26.664Z,94935.89
2018-09-03T20:18:52.705Z,94925.20
2018-09-03T20:21:18.729Z,94923.41
2018-09-03T20:23:44.764Z,94924.42
2018-09-03T20:26:10.712Z,94938.09
2018-09-03T20:28:36.737Z,94944.03
2018-09-03T20:31:02.726Z,94950.79
2018-09-03T20:33:28.704Z,94960.87
2018-09-03T20:35:54.711Z,94971.19
2018-09-03T20:38:20.710Z,94976.73
2018-09-03T20:40:46.731Z,94989.22
2018-09-03T20:43:12.733Z,94988.83
2018-09-03T20:45:38.723Z,94998.94
2018-09-03T20:48:04.846Z,95011.20
2018-09-03T20:50:30.836Z,95001.09
2018-09-03T20:52:56.978Z,94991.78
2018-09-03T20:55:22.995Z,94987.29
2018-09-03T20:57:48.934Z,94975.00
2018-09-03T21:00:14.973Z,94978.98
2018-09-03T21:02:40.947Z,94975.98
2018-09-03T21:05:06.930Z,94973.43
2018-09-03T21:07:32.922Z,94964.09
2018-09-03T21:09:58.920Z,94968.46
2018-09-03T21:12:24.900Z,94958.53
2018-09-03T21:14:50.875Z,94951.23
2018-09-03T21:17:16.907Z,94954.59
2018-09-03T21:19:42.893Z,94949.04
2018-09-03T21:22:08.929Z,94945.45
2018-09-03T21:24:34.908Z,94963.71
2018-09-03T21:27:00.914Z,94967.47
2018-09-03T21:29:26.888Z,94970.42
2018-09-03T21:31:52.904Z,94973.20
2018-09-03T21:34:18.896Z,94966.41
2018-09-03T21:36:44.930Z,94969.04
2018-09-03T21:39:10.998Z,94964.45
2018-09-03T21:41:36.892Z,94957.32
2018-09-03T21:44:02.878Z,94957.32
2018-09-03T21:46:28.867Z,94957.51
2018-09-03T21:48:54.879Z,94956.70
2018-09-03T21:51:20.874Z,94961.88
2018-09-03T21:53:46.855Z,94963.64
2018-09-03T21:56:12.837Z,94955.32
2018-09-03T21:58:38.823Z,94956.70
2018-09-03T22:01:04.836Z,94954.95
2018-09-03T22:03:30.815Z,94943.23
2018-09-03T22:05:56.809Z,94945.23
2018-09-03T22:08:22.835Z,94941.66
2018-09-03T22:10:48.764Z,94939.27
2018-09-03T22:13:14.752Z,94935.30
2018-09-03T22:15:40.735Z,94933.11
2018-09-03T22:18:06.723Z,94927.95
2018-09-03T22:20:32.702Z,94930.33
2018-09-03T22:22:58.689Z,94935.50
2018-09-03T22:25:24.681Z,94935.68
2018-09-03T22:27:50.652Z,94933.49
2018-09-03T22:30:16.701Z,94925.97
2018-09-03T22:32:42.684Z,94931.91
2018-09-03T22:35:08.672Z,94927.35
2018-09-03T22:37:34.644Z,94927.53
2018-09-03T22:40:00.637Z,94922.60
2018-09-03T22:42:26.610Z,94916.66
2018-09-03T22:44:52.629Z,94909.32
2018-09-03T22:47:18.618Z,94915.85
2018-09-03T22:49:44.608Z,94903.37
2018-09-03T22:52:10.585Z,94896.83
2018-09-03T22:54:36.562Z,94896.03
2018-09-03T22:57:02.540Z,94891.28
2018-09-03T22:59:28.529Z,94886.31
2018-09-03T23:01:54.509Z,94894.85
2018-09-03T23:04:20.491Z,94891.67
2018-09-03T23:06:46.467Z,94897.22
2018-09-03T23:09:12.465Z,94894.85
2018-09-03T23:11:38.443Z,94896.02
2018-09-03T23:14:04.483Z,94897.41
2018-09-03T23:16:30.434Z,94897.01
2018-09-03T23:18:56.440Z,94900.18
2018-09-03T23:21:22.452Z,94899.38
2018-09-03T23:23:48.461Z,94893.06
2018-09-03T23:26:14.469Z,94889.08
2018-09-03T23:28:40.449Z,94885.72
2018-09-03T23:31:06.435Z,94884.92
2018-09-03T23:33:32.445Z,94889.08
2018-09-03T23:35:58.457Z,94888.28
2018-09-03T23:38:24.458Z,94891.05
2018-09-03T23:40:50.437Z,94890.68
2018-09-03T23:43:16.443Z,94887.91
2018-09-03T23:45:42.447Z,94889.30
2018-09-03T23:48:08.470Z,94883.53
2018-09-03T23:50:34.469Z,94883.53
2018-09-03T23:53:00.440Z,94886.70
2018-09-03T23:55:26.426Z,94885.72
2018-09-03T23:57:52.399Z,94884.52
